Time;durP1;ratioP1;P1;durP2;ratioP2;P2;SDS_P1;SDS_P2;PMS_P1;PMS_P2;Temp;Humidity;BMP_temperature;BMP_pressure;BME280_temperature;BME280_humidity;BME280_pressure;Samples;Min_cycle;Max_cycle;Signal;HPM_P1;HPM_P2
2023/12/24 00:19:44;;;;;;;2.15;1.30;;;;;;;;;;6127888;23;20049;-90
2023/12/24 00:22:32;;;;;;;1.40;1.30;;;;;;;;;;6105920;23;20020;-90
2023/12/24 00:25:19;;;;;;;2.30;1.13;;;;;;;;;;6104299;23;20070;-90
2023/12/24 00:31:55;;;;;;;;;;;;;;;;;;6129316;23;20082;-90
2023/12/24 00:41:39;;;;;;;1.30;1.20;;;;;;;;;;6156758;23;20035;-90
2023/12/24 00:44:59;;;;;;;;;;;;;;;;;;;;;
2023/12/24 00:47:54;;;;;;;2.15;1.10;;;;;;;;;;6157234;23;20021;-90
2023/12/24 00:50:39;;;;;;;1.20;1.10;;;;;;;;;;6135559;23;20067;-90
2023/12/24 00:53:30;;;;;;;1.40;1.30;;;;;;;;;;6135164;23;20017;-92
2023/12/24 00:56:26;;;;;;;1.00;1.00;;;;;;;;;;6135247;23;20021;-91
2023/12/24 00:59:19;;;;;;;2.58;1.10;;;;;;;;;;6135524;23;20024;-90
2023/12/24 01:05:51;;;;;;;2.22;1.10;;;;;;;;;;6157387;23;20119;-91
2023/12/24 01:09:05;;;;;;;3.17;1.08;;;;;;;;;;6135811;23;20064;-92
2023/12/24 01:11:59;;;;;;;1.48;1.15;;;;;;;;;;6157246;23;20044;-92
2023/12/24 01:14:56;;;;;;;0.95;0.95;;;;;;;;;;6135686;23;20017;-90
2023/12/24 01:17:51;;;;;;;3.53;1.20;;;;;;;;;;6135270;23;20040;-90
2023/12/24 01:20:35;;;;;;;1.23;1.13;;;;;;;;;;6137125;23;20028;-90
2023/12/24 01:23:29;;;;;;;1.27;1.17;;;;;;;;;;6136673;23;20073;-91
2023/12/24 01:33:09;;;;;;;1.08;0.98;;;;;;;;;;6160273;23;20088;-90
2023/12/24 01:35:55;;;;;;;1.70;1.27;;;;;;;;;;6137707;23;20084;-91
2023/12/24 01:46:01;;;;;;;1.13;1.05;;;;;;;;;;6163134;23;20008;-90
2023/12/24 01:48:56;;;;;;;;;;;;;;;;;;;;;
2023/12/24 01:51:57;;;;;;;1.42;1.33;;;;;;;;;;6155103;23;20483;-89
2023/12/24 01:54:41;;;;;;;1.35;1.10;;;;;;;;;;6155113;23;20021;-89
2023/12/24 01:57:25;;;;;;;1.17;1.17;;;;;;;;;;6134760;23;20491;-89
2023/12/24 02:00:13;;;;;;;2.03;1.17;;;;;;;;;;6155426;23;20503;-89
2023/12/24 02:02:59;;;;;;;4.03;1.25;;;;;;;;;;6155102;23;20020;-89
2023/12/24 02:05:48;;;;;;;1.40;1.30;;;;;;;;;;6133171;23;20470;-89
2023/12/24 02:08:39;;;;;;;1.65;1.20;;;;;;;;;;6130957;23;20067;-88
2023/12/24 02:11:23;;;;;;;1.50;1.30;;;;;;;;;;6131173;23;20092;-89
2023/12/24 02:14:10;;;;;;;1.00;1.00;;;;;;;;;;6131516;23;20099;-90
2023/12/24 02:16:59;;;;;;;1.25;1.05;;;;;;;;;;6132024;23;20020;-89
2023/12/24 02:19:43;;;;;;;1.10;1.00;;;;;;;;;;6131356;23;20066;-90
2023/12/24 02:22:27;;;;;;;1.35;1.20;;;;;;;;;;6132601;23;20020;-91
2023/12/24 02:25:12;;;;;;;2.05;1.20;;;;;;;;;;6131696;23;20040;-90
2023/12/24 02:28:06;;;;;;;1.80;1.00;;;;;;;;;;6131276;23;20073;-91
2023/12/24 02:34:05;;;;;;;;;;;;;;;;;;6184501;22;19961;-88
2023/12/24 02:36:49;;;;;;;2.08;0.98;;;;;;;;;;6255317;22;19969;-90
2023/12/24 02:39:38;;;;;;;0.80;0.80;;;;;;;;;;6255506;22;20023;-88
2023/12/24 02:42:29;;;;;;;2.15;0.80;;;;;;;;;;6256002;22;20022;-90
2023/12/24 02:45:16;;;;;;;1.58;0.93;;;;;;;;;;6277922;22;20022;-91
2023/12/24 02:48:00;;;;;;;2.78;1.00;;;;;;;;;;6255347;22;20022;-88
2023/12/24 02:50:45;;;;;;;2.45;0.93;;;;;;;;;;6278024;22;20027;-90
2023/12/24 02:53:29;;;;;;;0.93;0.82;;;;;;;;;;6255554;22;20046;-90
2023/12/24 02:56:22;;;;;;;1.73;1.00;;;;;;;;;;6255348;22;20064;-88
2023/12/24 02:59:06;;;;;;;2.22;1.23;;;;;;;;;;6254989;22;20073;-88
2023/12/24 03:01:50;;;;;;;2.00;1.10;;;;;;;;;;6255053;22;20034;-89
2023/12/24 03:04:38;;;;;;;6.28;1.08;;;;;;;;;;6255522;22;20023;-90
2023/12/24 03:07:25;;;;;;;1.58;1.20;;;;;;;;;;6256027;22;20034;-88
2023/12/24 03:10:09;;;;;;;3.47;1.42;;;;;;;;;;6278097;22;20018;-89
2023/12/24 03:12:53;;;;;;;1.08;1.00;;;;;;;;;;6278655;22;20069;-89
2023/12/24 03:15:36;;;;;;;2.88;1.17;;;;;;;;;;6256020;22;20038;-90
2023/12/24 03:18:20;;;;;;;2.88;2.05;;;;;;;;;;6255518;22;20019;-91
2023/12/24 03:21:04;;;;;;;1.50;1.40;;;;;;;;;;6255936;22;20018;-89
2023/12/24 03:23:51;;;;;;;2.15;1.50;;;;;;;;;;6255433;22;20069;-90
2023/12/24 03:26:35;;;;;;;2.45;1.48;;;;;;;;;;6255853;22;20072;-89
2023/12/24 03:29:21;;;;;;;5.18;1.65;;;;;;;;;;6278451;22;20334;-89
2023/12/24 03:32:06;;;;;;;3.90;1.48;;;;;;;;;;6256629;22;20018;-88
2023/12/24 03:34:50;;;;;;;6.97;2.28;;;;;;;;;;6184185;23;20025;-89
2023/12/24 03:37:35;;;;;;;2.20;1.50;;;;;;;;;;6130960;23;20056;-89
2023/12/24 03:40:21;;;;;;;2.47;1.50;;;;;;;;;;6153281;23;20036;-88
2023/12/24 03:43:05;;;;;;;4.55;1.88;;;;;;;;;;6132247;23;20079;-90
2023/12/24 03:45:49;;;;;;;6.35;1.90;;;;;;;;;;6132371;23;20025;-90
2023/12/24 03:48:35;;;;;;;4.07;1.60;;;;;;;;;;6131629;23;20024;-89
2023/12/24 03:51:20;;;;;;;4.30;1.90;;;;;;;;;;6132439;23;20105;-88
2023/12/24 03:54:04;;;;;;;4.07;2.25;;;;;;;;;;6132623;23;20072;-89
2023/12/24 03:56:48;;;;;;;3.75;2.20;;;;;;;;;;6132010;23;20145;-89
2023/12/24 03:59:31;;;;;;;9.57;2.42;;;;;;;;;;6132350;23;20083;-90
2023/12/24 04:02:15;;;;;;;5.18;2.22;;;;;;;;;;6132920;23;20499;-89
2023/12/24 04:04:59;;;;;;;4.88;3.05;;;;;;;;;;6132181;23;20463;-89
2023/12/24 04:07:51;;;;;;;6.75;2.88;;;;;;;;;;6132675;23;20458;-91
2023/12/24 04:10:39;;;;;;;8.48;3.00;;;;;;;;;;6132563;23;20056;-89
2023/12/24 04:13:23;;;;;;;11.25;3.58;;;;;;;;;;6132739;23;20063;-92
2023/12/24 04:16:07;;;;;;;9.07;3.00;;;;;;;;;;6132696;23;20066;-89
2023/12/24 04:18:51;;;;;;;9.80;3.22;;;;;;;;;;6132403;23;20028;-90
2023/12/24 04:21:35;;;;;;;7.13;3.30;;;;;;;;;;6132073;23;20041;-89
2023/12/24 04:24:20;;;;;;;7.90;3.42;;;;;;;;;;6132178;23;20471;-89
2023/12/24 04:27:06;;;;;;;7.75;3.47;;;;;;;;;;6132248;23;20020;-89
2023/12/24 04:29:53;;;;;;;7.65;3.75;;;;;;;;;;6131783;23;20024;-89
2023/12/24 04:32:37;;;;;;;9.45;3.35;;;;;;;;;;6131293;23;20025;-89
2023/12/24 04:35:21;;;;;;;7.65;3.67;;;;;;;;;;6130888;23;20024;-89
2023/12/24 04:38:05;;;;;;;5.78;3.15;;;;;;;;;;6131773;23;20111;-88
2023/12/24 04:40:49;;;;;;;7.00;3.70;;;;;;;;;;6131086;23;20337;-88
2023/12/24 04:43:33;;;;;;;10.75;3.78;;;;;;;;;;6131046;23;20019;-90
2023/12/24 04:46:17;;;;;;;10.30;4.00;;;;;;;;;;6131166;23;20017;-90
2023/12/24 04:49:01;;;;;;;10.07;3.58;;;;;;;;;;6131378;23;20055;-90
2023/12/24 04:51:45;;;;;;;6.45;3.58;;;;;;;;;;6130893;23;20028;-90
2023/12/24 04:54:29;;;;;;;8.80;3.60;;;;;;;;;;6130836;23;20458;-89
2023/12/24 04:57:13;;;;;;;7.70;4.32;;;;;;;;;;6131399;23;20052;-90
2023/12/24 04:59:57;;;;;;;5.80;3.30;;;;;;;;;;6130855;23;20013;-89
2023/12/24 05:02:44;;;;;;;8.27;3.55;;;;;;;;;;6131370;23;20071;-87
2023/12/24 05:05:28;;;;;;;6.07;3.20;;;;;;;;;;6131368;23;20017;-88
2023/12/24 05:08:12;;;;;;;8.27;3.40;;;;;;;;;;6133029;23;20083;-88
2023/12/24 05:10:56;;;;;;;10.25;3.67;;;;;;;;;;6132889;23;20035;-88
2023/12/24 05:13:39;;;;;;;11.88;3.58;;;;;;;;;;6132055;23;20060;-90
2023/12/24 05:16:23;;;;;;;6.18;3.85;;;;;;;;;;6131657;23;20467;-89
2023/12/24 05:19:07;;;;;;;8.20;3.47;;;;;;;;;;6132065;23;20021;-89
2023/12/24 05:21:51;;;;;;;8.73;3.72;;;;;;;;;;6132465;23;20074;-91
2023/12/24 05:24:35;;;;;;;8.20;3.20;;;;;;;;;;6132887;23;20028;-90
2023/12/24 05:27:22;;;;;;;9.90;2.83;;;;;;;;;;6131513;23;20075;-90
2023/12/24 05:30:06;;;;;;;7.82;2.88;;;;;;;;;;6132123;23;20025;-92
2023/12/24 05:32:50;;;;;;;6.03;2.53;;;;;;;;;;6132327;23;20021;-89
2023/12/24 05:35:37;;;;;;;7.63;2.60;;;;;;;;;;6153846;23;20096;-90
2023/12/24 05:38:21;;;;;;;5.72;2.20;;;;;;;;;;6132361;23;20013;-88
2023/12/24 05:41:18;;;;;;;6.45;2.25;;;;;;;;;;6132083;23;20028;-88
2023/12/24 05:44:05;;;;;;;7.40;2.35;;;;;;;;;;6132003;23;20092;-90
2023/12/24 05:46:52;;;;;;;6.47;1.92;;;;;;;;;;6132168;22;20020;-91
2023/12/24 05:49:40;;;;;;;6.55;1.88;;;;;;;;;;6132925;23;20052;-91
2023/12/24 05:52:24;;;;;;;3.35;1.90;;;;;;;;;;6131887;23;20107;-89
2023/12/24 05:55:09;;;;;;;4.70;2.03;;;;;;;;;;6131280;23;20017;-92
2023/12/24 05:57:56;;;;;;;5.50;2.45;;;;;;;;;;6132634;23;20025;-89
2023/12/24 06:00:40;;;;;;;5.35;2.28;;;;;;;;;;6131811;23;20017;-89
2023/12/24 06:03:26;;;;;;;4.78;2.22;;;;;;;;;;6131404;23;20173;-87
2023/12/24 06:06:13;;;;;;;4.82;2.10;;;;;;;;;;6131816;23;20032;-89
2023/12/24 06:09:03;;;;;;;6.05;2.13;;;;;;;;;;6132979;23;20016;-90
2023/12/24 06:11:48;;;;;;;3.72;2.10;;;;;;;;;;6132199;23;20025;-91
2023/12/24 06:14:34;;;;;;;6.95;2.63;;;;;;;;;;6132515;23;20044;-90
2023/12/24 06:17:19;;;;;;;8.70;2.30;;;;;;;;;;6131818;23;20064;-91
2023/12/24 06:20:06;;;;;;;8.35;2.40;;;;;;;;;;6132074;23;20093;-89
2023/12/24 06:23:03;;;;;;;;;;;;;;;;;;;;;
2023/12/24 06:25:50;;;;;;;8.07;2.63;;;;;;;;;;6154011;23;20151;-90
2023/12/24 06:28:37;;;;;;;8.80;2.70;;;;;;;;;;6132656;23;20025;-89
2023/12/24 06:31:24;;;;;;;5.18;2.25;;;;;;;;;;6132251;23;20458;-90
2023/12/24 06:34:09;;;;;;;4.18;2.28;;;;;;;;;;6132627;23;20336;-89
2023/12/24 06:36:53;;;;;;;9.82;2.33;;;;;;;;;;6132623;23;20371;-90
2023/12/24 06:39:41;;;;;;;4.50;2.10;;;;;;;;;;6133565;23;20012;-88
2023/12/24 06:42:25;;;;;;;6.13;2.10;;;;;;;;;;6132406;23;20028;-88
2023/12/24 06:45:10;;;;;;;5.40;1.60;;;;;;;;;;6132166;23;20082;-88
2023/12/24 06:47:53;;;;;;;8.27;1.60;;;;;;;;;;6131892;23;20466;-90
2023/12/24 06:50:40;;;;;;;1.83;1.20;;;;;;;;;;6131424;23;20025;-89
2023/12/24 06:53:27;;;;;;;2.42;1.15;;;;;;;;;;6131570;23;20025;-89
2023/12/24 06:56:11;;;;;;;2.10;1.30;;;;;;;;;;6131729;23;20039;-92
2023/12/24 06:58:55;;;;;;;1.83;1.10;;;;;;;;;;6131368;23;20198;-88
2023/12/24 07:01:38;;;;;;;;;;;;;;;;;;6131665;23;20060;-90
2023/12/24 07:04:22;;;;;;;4.32;1.48;;;;;;;;;;6131362;23;19912;-89
2023/12/24 07:07:09;;;;;;;4.80;1.17;;;;;;;;;;6130906;23;20024;-89
2023/12/24 07:09:53;;;;;;;5.53;1.63;;;;;;;;;;6130905;23;20471;-88
2023/12/24 07:12:48;;;;;;;3.80;1.45;;;;;;;;;;6130867;23;20070;-90
2023/12/24 07:15:40;;;;;;;4.93;1.70;;;;;;;;;;6130342;23;20074;-89
2023/12/24 07:43:11;;;;;;;0.70;0.70;;;;;;;;;;6092739;23;20025;-89
2023/12/24 07:46:25;;;;;;;3.17;1.00;;;;;;;;;;6096171;23;20025;-88
2023/12/24 08:03:47;;;;;;;2.55;1.00;;;;;;;;;;6095644;23;20066;-88
2023/12/24 08:06:35;;;;;;;1.38;0.80;;;;;;;;;;6054818;23;20022;-88
2023/12/24 08:09:32;;;;;;;2.67;0.90;;;;;;;;;;6130521;23;20071;-87
2023/12/24 08:12:16;;;;;;;1.58;0.77;;;;;;;;;;6130289;23;20032;-89
2023/12/24 08:15:04;;;;;;;1.42;0.88;;;;;;;;;;6130753;23;20021;-89
2023/12/24 08:17:49;;;;;;;1.75;1.05;;;;;;;;;;6131216;23;20060;-90
2023/12/24 08:20:33;;;;;;;1.70;0.95;;;;;;;;;;6131739;23;20017;-86
2023/12/24 08:23:17;;;;;;;3.55;0.80;;;;;;;;;;6149095;23;20024;-86
2023/12/24 08:26:12;;;;;;;0.60;0.60;;;;;;;;;;6126865;23;20037;-89
2023/12/24 08:28:56;;;;;;;0.95;0.63;;;;;;;;;;6127908;23;20025;-86
2023/12/24 08:31:56;;;;;;;2.70;0.90;;;;;;;;;;6128483;23;20020;-87
2023/12/24 08:34:40;;;;;;;1.50;0.88;;;;;;;;;;6150142;23;20513;-86
2023/12/24 08:37:24;;;;;;;0.80;0.80;;;;;;;;;;6127379;23;20021;-86
2023/12/24 08:40:10;;;;;;;1.80;0.90;;;;;;;;;;6148570;23;20012;-84
2023/12/24 08:42:54;;;;;;;1.65;0.80;;;;;;;;;;6128499;23;20344;-84
2023/12/24 08:45:38;;;;;;;0.80;0.80;;;;;;;;;;6128544;23;20093;-87
2023/12/24 08:48:22;;;;;;;1.17;1.00;;;;;;;;;;6128208;23;20059;-87
2023/12/24 08:51:06;;;;;;;0.77;0.77;;;;;;;;;;6127818;23;20839;-85
2023/12/24 08:53:50;;;;;;;0.82;0.70;;;;;;;;;;6128094;23;20017;-85
2023/12/24 08:56:34;;;;;;;1.42;0.88;;;;;;;;;;6128541;23;20020;-85
2023/12/24 08:59:18;;;;;;;2.05;0.70;;;;;;;;;;6130780;23;20458;-88
2023/12/24 09:02:02;;;;;;;1.10;0.70;;;;;;;;;;6131352;23;20020;-90
2023/12/24 09:04:51;;;;;;;0.70;0.70;;;;;;;;;;6130293;23;20024;-87
2023/12/24 09:07:35;;;;;;;2.25;0.70;;;;;;;;;;6130765;23;20086;-87
2023/12/24 09:10:41;;;;;;;2.33;0.82;;;;;;;;;;6151872;23;20071;-87
2023/12/24 09:13:25;;;;;;;1.25;0.80;;;;;;;;;;6152868;23;20021;-88
2023/12/24 09:16:08;;;;;;;0.40;0.40;;;;;;;;;;6151386;23;20033;-88
2023/12/24 09:18:52;;;;;;;2.33;0.60;;;;;;;;;;6131100;23;20103;-88
2023/12/24 09:25:17;;;;;;;0.60;0.60;;;;;;;;;;6158709;23;20402;-89
2023/12/24 09:28:02;;;;;;;0.60;0.60;;;;;;;;;;6131513;23;20044;-89
2023/12/24 09:30:47;;;;;;;0.52;0.52;;;;;;;;;;6132748;23;20115;-89
2023/12/24 09:33:56;;;;;;;0.63;0.60;;;;;;;;;;6133871;23;20020;-88
2023/12/24 09:54:51;;;;;;;2.50;0.60;;;;;;;;;;6276385;22;20017;-87
2023/12/24 09:57:41;;;;;;;0.50;0.50;;;;;;;;;;6276062;22;20069;-89
2023/12/24 10:22:37;;;;;;;2.88;0.60;;;;;;;;;;6280130;22;20506;-88
2023/12/24 10:25:22;;;;;;;0.57;0.52;;;;;;;;;;6253869;22;20022;-89
2023/12/24 10:28:06;;;;;;;0.68;0.65;;;;;;;;;;6252306;22;20026;-88
2023/12/24 10:42:14;;;;;;;3.47;0.80;;;;;;;;;;6284727;22;20073;-89
2023/12/24 10:45:31;;;;;;;0.82;0.82;;;;;;;;;;6256587;22;20142;-89
2023/12/24 10:51:51;;;;;;;3.10;1.20;;;;;;;;;;6278163;22;20089;-88
2023/12/24 11:23:55;;;;;;;1.10;0.80;;;;;;;;;;6239505;22;20014;-89
2023/12/24 11:27:00;;;;;;;1.35;0.70;;;;;;;;;;6253311;22;20068;-88
2023/12/24 11:29:46;;;;;;;;;;;;;;;;;;6255925;22;20015;-89
2023/12/24 11:32:30;;;;;;;0.80;0.80;;;;;;;;;;6255224;22;19914;-88
2023/12/24 11:35:34;;;;;;;3.35;0.90;;;;;;;;;;6255659;22;20018;-87
2023/12/24 11:38:18;;;;;;;;;;;;;;;;;;6256652;22;20018;-90
2023/12/24 11:44:45;;;;;;;1.25;0.93;;;;;;;;;;6276498;22;20114;-87
2023/12/24 11:47:29;;;;;;;3.65;1.10;;;;;;;;;;6253431;22;20034;-87
2023/12/24 11:50:13;;;;;;;1.17;1.08;;;;;;;;;;6210322;23;20461;-84
2023/12/24 11:56:34;;;;;;;1.02;0.90;;;;;;;;;;6148813;23;20048;-82
2023/12/24 11:59:18;;;;;;;1.42;1.13;;;;;;;;;;6127646;23;20503;-85
2023/12/24 12:02:08;;;;;;;0.80;0.80;;;;;;;;;;6131342;23;20037;-87
2023/12/24 12:08:24;;;;;;;1.10;0.90;;;;;;;;;;6155271;23;20520;-89
2023/12/24 12:14:38;;;;;;;1.08;0.98;;;;;;;;;;6287597;22;20022;-82
2023/12/24 12:17:27;;;;;;;1.05;0.88;;;;;;;;;;6320984;22;20017;-89
2023/12/24 12:24:14;;;;;;;2.10;1.10;;;;;;;;;;6341099;22;20017;-89
2023/12/24 12:45:24;;;;;;;1.77;1.48;;;;;;;;;;6348813;22;20396;-89
2023/12/24 12:52:12;;;;;;;;;;;;;;;;;;;;;
2023/12/24 12:55:11;;;;;;;1.63;1.17;;;;;;;;;;6310930;22;20208;-88
2023/12/24 12:58:21;;;;;;;1.40;1.30;;;;;;;;;;6317783;22;20015;-87
2023/12/24 13:01:33;;;;;;;1.75;1.00;;;;;;;;;;6319427;22;20030;-87
2023/12/24 13:04:26;;;;;;;1.73;1.35;;;;;;;;;;6319276;22;20045;-88
2023/12/24 13:07:39;;;;;;;1.17;1.07;;;;;;;;;;6318350;22;20098;-87
2023/12/24 13:10:53;;;;;;;2.08;1.20;;;;;;;;;;6317369;22;20067;-87
2023/12/24 13:13:37;;;;;;;1.52;1.10;;;;;;;;;;6314209;22;20049;-88
2023/12/24 13:16:47;;;;;;;4.53;1.25;;;;;;;;;;6316145;22;20349;-88
2023/12/24 13:19:41;;;;;;;1.77;1.10;;;;;;;;;;6316561;22;20064;-88
2023/12/24 13:22:26;;;;;;;4.72;2.28;;;;;;;;;;6318043;22;20022;-89
2023/12/24 13:25:13;;;;;;;2.30;1.10;;;;;;;;;;6319132;22;20393;-89
2023/12/24 13:27:57;;;;;;;2.67;1.20;;;;;;;;;;6318098;22;20017;-86
2023/12/24 13:30:41;;;;;;;1.30;1.20;;;;;;;;;;6317087;22;20025;-88
2023/12/24 13:33:26;;;;;;;1.40;1.30;;;;;;;;;;6317786;22;20022;-87
2023/12/24 13:40:15;;;;;;;1.88;1.50;;;;;;;;;;6343108;22;20062;-88
2023/12/24 13:43:00;;;;;;;3.72;1.80;;;;;;;;;;6317788;22;20345;-86
2023/12/24 13:49:18;;;;;;;1.98;1.77;;;;;;;;;;6278032;22;20366;-87
2023/12/24 13:52:04;;;;;;;3.03;1.90;;;;;;;;;;6254420;22;20057;-84
2023/12/24 13:58:53;;;;;;;1.48;1.40;;;;;;;;;;6277336;22;20441;-86
2023/12/24 14:01:45;;;;;;;1.63;1.50;;;;;;;;;;6254282;22;20019;-88
2023/12/24 14:11:57;;;;;;;2.10;1.58;;;;;;;;;;6276036;22;20018;-88
2023/12/24 14:14:47;;;;;;;1.80;1.58;;;;;;;;;;6236356;22;20043;-86
2023/12/24 14:21:11;;;;;;;1.80;1.70;;;;;;;;;;6247339;23;20050;-87
2023/12/24 15:11:27;;;;;;;;;;;;;;;;;;;;;
2023/12/24 15:14:12;;;;;;;7.32;2.20;;;;;;;;;;6307589;22;20077;-87
2023/12/24 15:21:18;;;;;;;7.47;2.25;;;;;;;;;;6309072;22;20040;-89
2023/12/24 15:24:03;;;;;;;3.05;2.00;;;;;;;;;;6284202;22;20069;-86
2023/12/24 15:26:47;;;;;;;6.00;2.67;;;;;;;;;;6283789;22;20022;-84
2023/12/24 15:29:31;;;;;;;8.80;2.85;;;;;;;;;;6282746;22;20480;-86
2023/12/24 15:32:18;;;;;;;9.20;3.38;;;;;;;;;;6282324;22;20069;-84
2023/12/24 15:35:01;;;;;;;6.50;2.50;;;;;;;;;;6282602;22;20019;-86
2023/12/24 15:37:46;;;;;;;8.38;2.38;;;;;;;;;;6281961;22;20527;-86
2023/12/24 15:40:29;;;;;;;7.40;2.55;;;;;;;;;;6282116;22;20015;-87
2023/12/24 15:43:16;;;;;;;8.30;2.88;;;;;;;;;;6284990;22;20071;-86
2023/12/24 15:46:02;;;;;;;5.03;2.90;;;;;;;;;;6285543;22;20026;-85
2023/12/24 15:48:46;;;;;;;11.18;2.88;;;;;;;;;;6304935;22;20019;-85
2023/12/24 15:51:30;;;;;;;6.95;3.15;;;;;;;;;;6305113;22;20021;-84
2023/12/24 15:54:19;;;;;;;7.53;2.88;;;;;;;;;;6306879;22;20022;-88
2023/12/24 15:57:05;;;;;;;8.27;2.25;;;;;;;;;;6284143;22;20036;-88
2023/12/24 15:59:49;;;;;;;7.90;1.90;;;;;;;;;;6286354;22;20087;-89
2023/12/24 16:02:35;;;;;;;3.22;2.03;;;;;;;;;;6286613;22;20037;-88
2023/12/24 16:05:21;;;;;;;6.53;2.78;;;;;;;;;;6284515;22;20026;-88
2023/12/24 16:08:05;;;;;;;17.80;3.03;;;;;;;;;;6284690;22;20053;-88
2023/12/24 16:10:49;;;;;;;8.38;2.35;;;;;;;;;;6287825;22;20019;-89
2023/12/24 16:13:33;;;;;;;9.77;2.95;;;;;;;;;;6290141;22;20040;-89
2023/12/24 16:16:17;;;;;;;6.50;2.50;;;;;;;;;;6285322;22;20136;-84
2023/12/24 16:19:01;;;;;;;8.93;3.72;;;;;;;;;;6282094;22;20354;-85
2023/12/24 16:21:45;;;;;;;6.28;2.00;;;;;;;;;;6284820;22;20022;-84
2023/12/24 16:24:29;;;;;;;4.45;1.80;;;;;;;;;;6308874;22;20046;-88
2023/12/24 16:27:13;;;;;;;6.78;2.05;;;;;;;;;;6287268;22;20041;-87
2023/12/24 16:29:57;;;;;;;5.28;1.90;;;;;;;;;;6289359;22;20017;-89
2023/12/24 16:32:42;;;;;;;3.58;1.75;;;;;;;;;;6292837;22;20026;-89
2023/12/24 16:35:27;;;;;;;5.20;1.70;;;;;;;;;;6285320;22;20342;-87
2023/12/24 16:38:43;;;;;;;7.15;1.98;;;;;;;;;;6283834;22;20391;-87
2023/12/24 16:41:28;;;;;;;4.10;1.67;;;;;;;;;;6308398;22;20018;-87
2023/12/24 16:44:21;;;;;;;5.82;1.83;;;;;;;;;;6284386;22;20023;-88
2023/12/24 16:47:07;;;;;;;3.80;1.40;;;;;;;;;;6283587;22;20018;-88
2023/12/24 16:50:23;;;;;;;4.88;1.40;;;;;;;;;;6285251;22;20025;-87
2023/12/24 16:53:07;;;;;;;4.45;1.58;;;;;;;;;;6287377;22;20049;-89
2023/12/24 16:55:51;;;;;;;2.53;1.52;;;;;;;;;;6309360;22;20017;-89
2023/12/24 16:58:35;;;;;;;5.95;1.92;;;;;;;;;;6307651;22;20018;-87
2023/12/24 17:01:19;;;;;;;2.75;1.30;;;;;;;;;;6283797;22;20104;-87
2023/12/24 17:04:12;;;;;;;3.60;1.30;;;;;;;;;;6284584;22;20017;-89
2023/12/24 17:06:56;;;;;;;6.80;2.50;;;;;;;;;;6283232;22;20125;-88
2023/12/24 17:09:44;;;;;;;6.65;2.67;;;;;;;;;;6282821;22;20021;-89
2023/12/24 17:12:31;;;;;;;3.50;1.70;;;;;;;;;;6286486;22;20109;-87
2023/12/24 17:15:18;;;;;;;3.88;1.20;;;;;;;;;;6284739;22;20081;-87
2023/12/24 17:18:05;;;;;;;1.48;1.27;;;;;;;;;;6308585;22;20045;-87
2023/12/24 17:20:51;;;;;;;3.30;1.50;;;;;;;;;;6283690;22;20060;-87
2023/12/24 17:23:35;;;;;;;4.60;1.50;;;;;;;;;;6306231;22;20023;-88
2023/12/24 17:26:19;;;;;;;4.13;1.60;;;;;;;;;;6310410;22;20022;-88
2023/12/24 17:29:03;;;;;;;4.43;1.85;;;;;;;;;;6286702;22;20018;-89
2023/12/24 17:31:47;;;;;;;9.23;1.75;;;;;;;;;;6287066;22;20018;-88
2023/12/24 17:34:31;;;;;;;4.40;2.08;;;;;;;;;;6287389;22;20095;-88
2023/12/24 17:37:15;;;;;;;6.22;1.92;;;;;;;;;;6287930;22;20345;-87
2023/12/24 17:39:59;;;;;;;6.88;1.77;;;;;;;;;;6287824;22;20019;-89
2023/12/24 17:42:43;;;;;;;2.58;1.55;;;;;;;;;;6288321;22;20037;-87
2023/12/24 17:45:28;;;;;;;5.00;2.15;;;;;;;;;;6288312;22;20026;-88
2023/12/24 17:48:11;;;;;;;5.47;2.42;;;;;;;;;;6310423;22;20404;-87
2023/12/24 17:50:55;;;;;;;3.92;1.60;;;;;;;;;;6286313;22;20069;-88
2023/12/24 17:53:39;;;;;;;6.63;2.65;;;;;;;;;;6281609;22;20025;-86
2023/12/24 17:56:23;;;;;;;7.22;2.22;;;;;;;;;;6284556;22;20018;-90
2023/12/24 17:59:07;;;;;;;9.70;2.13;;;;;;;;;;6286485;22;20042;-89
2023/12/24 18:01:51;;;;;;;4.95;2.42;;;;;;;;;;6286044;22;20034;-88
2023/12/24 18:04:35;;;;;;;7.93;2.40;;;;;;;;;;6286773;22;20130;-88
2023/12/24 18:07:19;;;;;;;6.78;2.10;;;;;;;;;;6285469;22;20069;-87
2023/12/24 18:10:03;;;;;;;8.98;2.40;;;;;;;;;;6285137;22;20033;-88
2023/12/24 18:12:50;;;;;;;4.95;2.10;;;;;;;;;;6284107;22;20063;-86
2023/12/24 18:15:45;;;;;;;6.70;1.90;;;;;;;;;;6274113;22;20377;-88
2023/12/24 18:18:32;;;;;;;3.95;1.80;;;;;;;;;;6253443;22;20045;-87
2023/12/24 18:25:01;;;;;;;3.35;1.75;;;;;;;;;;6255186;22;20015;-88
2023/12/24 18:27:48;;;;;;;6.18;2.10;;;;;;;;;;6253591;22;20018;-86
2023/12/24 18:30:33;;;;;;;2.72;1.65;;;;;;;;;;6253554;22;20329;-88
2023/12/24 18:33:25;;;;;;;5.95;1.63;;;;;;;;;;6274623;22;20046;-87
2023/12/24 18:36:34;;;;;;;8.35;2.03;;;;;;;;;;6252906;22;20015;-87
2023/12/24 18:39:23;;;;;;;5.03;1.83;;;;;;;;;;6252433;22;20073;-87
2023/12/24 18:42:29;;;;;;;12.95;2.40;;;;;;;;;;6273684;22;20022;-89
2023/12/24 18:45:18;;;;;;;3.75;2.00;;;;;;;;;;6253699;22;20022;-89
2023/12/24 18:48:04;;;;;;;5.57;1.80;;;;;;;;;;6305237;22;20483;-91
2023/12/24 18:51:04;;;;;;;5.07;2.25;;;;;;;;;;6283150;22;20022;-90
2023/12/24 18:54:03;;;;;;;7.43;2.85;;;;;;;;;;6281985;22;20018;-87
2023/12/24 18:57:01;;;;;;;6.63;2.53;;;;;;;;;;6282642;22;20018;-89
2023/12/24 19:00:16;;;;;;;5.80;2.35;;;;;;;;;;6306489;22;20065;-89
2023/12/24 19:07:30;;;;;;;6.38;3.55;;;;;;;;;;6217733;22;20018;-90
2023/12/24 19:10:16;;;;;;;7.53;2.50;;;;;;;;;;6196244;23;20019;-89
2023/12/24 19:13:10;;;;;;;3.72;1.98;;;;;;;;;;6200453;23;20026;-90
2023/12/24 19:15:59;;;;;;;7.15;2.45;;;;;;;;;;6192769;23;20027;-88
2023/12/24 19:18:44;;;;;;;7.53;2.28;;;;;;;;;;6190536;23;20103;-88
2023/12/24 19:21:28;;;;;;;4.00;2.03;;;;;;;;;;6303874;22;20456;-89
2023/12/24 19:24:12;;;;;;;6.43;2.15;;;;;;;;;;6283714;22;20017;-86
2023/12/24 19:27:03;;;;;;;6.18;2.10;;;;;;;;;;6284434;22;20069;-85
2023/12/24 19:30:05;;;;;;;7.13;2.28;;;;;;;;;;6284008;22;20069;-85
2023/12/24 19:33:13;;;;;;;3.92;2.05;;;;;;;;;;6283240;22;20021;-85
2023/12/24 19:35:57;;;;;;;5.35;2.10;;;;;;;;;;6283240;22;20017;-87
2023/12/24 19:38:52;;;;;;;6.35;2.53;;;;;;;;;;6283750;22;20018;-88
2023/12/24 19:41:36;;;;;;;7.40;2.83;;;;;;;;;;6284935;22;20471;-86
2023/12/24 19:44:20;;;;;;;9.10;3.28;;;;;;;;;;6283298;22;20022;-87
2023/12/24 19:47:04;;;;;;;7.95;3.63;;;;;;;;;;6308098;22;20098;-89
2023/12/24 19:49:51;;;;;;;9.88;3.90;;;;;;;;;;6283197;22;20041;-86
2023/12/24 19:52:35;;;;;;;9.48;3.28;;;;;;;;;;6283376;22;20329;-87
2023/12/24 19:55:25;;;;;;;11.30;2.72;;;;;;;;;;6284091;22;20069;-86
2023/12/24 19:58:13;;;;;;;4.95;2.70;;;;;;;;;;6308504;22;20110;-90
2023/12/24 20:00:57;;;;;;;5.90;2.33;;;;;;;;;;6286709;22;20136;-89
2023/12/24 20:03:43;;;;;;;7.50;2.80;;;;;;;;;;6284244;22;20333;-90
2023/12/24 20:06:27;;;;;;;11.10;3.13;;;;;;;;;;6284371;22;20013;-88
2023/12/24 20:09:11;;;;;;;8.55;2.40;;;;;;;;;;6287443;22;20103;-90
2023/12/24 20:11:55;;;;;;;7.18;1.98;;;;;;;;;;6285708;22;20469;-90
2023/12/24 20:14:39;;;;;;;4.43;1.85;;;;;;;;;;6222408;22;20474;-89
2023/12/24 20:17:26;;;;;;;10.45;2.30;;;;;;;;;;6158012;23;20027;-88
2023/12/24 20:20:12;;;;;;;5.85;2.42;;;;;;;;;;6180962;23;20024;-88
2023/12/24 20:22:55;;;;;;;7.38;2.00;;;;;;;;;;6180833;23;20062;-86
2023/12/24 20:25:39;;;;;;;10.05;2.30;;;;;;;;;;6159418;23;20031;-88
2023/12/24 20:28:23;;;;;;;7.85;2.00;;;;;;;;;;6159039;23;20494;-90
2023/12/24 20:31:11;;;;;;;9.82;2.28;;;;;;;;;;6159763;23;20039;-87
2023/12/24 20:33:55;;;;;;;6.80;2.60;;;;;;;;;;6160094;23;20024;-88
2023/12/24 20:36:39;;;;;;;9.15;3.92;;;;;;;;;;6159621;23;20092;-88
2023/12/24 20:39:24;;;;;;;13.15;2.83;;;;;;;;;;6159176;23;20387;-88
2023/12/24 20:42:08;;;;;;;6.78;2.78;;;;;;;;;;6159118;23;20024;-91
2023/12/24 20:44:58;;;;;;;10.50;2.50;;;;;;;;;;6158080;23;20048;-87
2023/12/24 20:48:07;;;;;;;8.07;2.72;;;;;;;;;;6159159;23;20044;-89
2023/12/24 20:50:54;;;;;;;7.43;2.40;;;;;;;;;;6159383;23;20024;-89
2023/12/24 20:54:15;;;;;;;9.35;2.03;;;;;;;;;;6158887;23;20020;-88
2023/12/24 20:57:24;;;;;;;5.35;1.73;;;;;;;;;;6159592;23;20098;-87
2023/12/24 21:00:39;;;;;;;7.22;1.83;;;;;;;;;;6160544;23;20082;-89
2023/12/24 21:03:25;;;;;;;6.43;2.00;;;;;;;;;;6158718;23;20023;-86
2023/12/24 21:06:09;;;;;;;11.73;2.50;;;;;;;;;;6180477;23;20101;-86
2023/12/24 21:08:53;;;;;;;11.25;2.05;;;;;;;;;;6182302;23;20477;-90
2023/12/24 21:11:39;;;;;;;9.68;1.95;;;;;;;;;;6159877;23;20070;-87
2023/12/24 21:14:24;;;;;;;8.88;2.50;;;;;;;;;;6173560;22;20027;-87
2023/12/24 21:17:30;;;;;;;9.10;2.88;;;;;;;;;;6271308;22;20467;-89
2023/12/24 21:20:48;;;;;;;10.45;2.35;;;;;;;;;;6271480;22;20055;-88
2023/12/24 21:26:41;;;;;;;9.90;3.42;;;;;;;;;;6183115;23;20063;-88
2023/12/24 21:29:27;;;;;;;11.93;3.10;;;;;;;;;;6270298;22;20024;-88
2023/12/24 21:32:11;;;;;;;14.55;4.07;;;;;;;;;;6270385;22;20515;-87
2023/12/24 21:34:56;;;;;;;12.50;3.33;;;;;;;;;;6181353;23;20036;-87
2023/12/24 21:37:40;;;;;;;17.05;3.03;;;;;;;;;;6269939;22;20016;-87
2023/12/24 21:40:25;;;;;;;13.15;3.40;;;;;;;;;;6270393;22;20151;-88
2023/12/24 21:43:18;;;;;;;17.13;3.38;;;;;;;;;;6270961;22;20023;-88
2023/12/24 21:46:12;;;;;;;12.93;2.95;;;;;;;;;;6264537;22;20028;-87
2023/12/24 21:48:58;;;;;;;10.55;3.38;;;;;;;;;;6269971;22;20511;-87
2023/12/24 21:52:07;;;;;;;9.73;3.60;;;;;;;;;;6270321;22;20066;-89
2023/12/24 21:55:25;;;;;;;10.63;3.78;;;;;;;;;;6269665;22;20406;-88
2023/12/24 21:58:10;;;;;;;12.30;3.53;;;;;;;;;;6270773;22;20340;-87